sensor_id;sensor_type;location;lat;lon;timestamp;P1;durP1;ratioP1;P2;durP2;ratioP2
32932;SDS011;19444;50.518;10.870;2023-09-19T00:00:07;2.10;;;0.75;;
32932;SDS011;19444;50.518;10.870;2023-09-19T00:03:04;1.20;;;0.40;;
32932;SDS011;19444;50.518;10.870;2023-09-19T00:06:03;0.77;;;0.47;;
32932;SDS011;19444;50.518;10.870;2023-09-19T00:09:01;2.10;;;0.68;;
32932;SDS011;19444;50.518;10.870;2023-09-19T00:11:58;2.80;;;0.85;;
32932;SDS011;19444;50.518;10.870;2023-09-19T00:14:55;1.48;;;0.80;;
32932;SDS011;19444;50.518;10.870;2023-09-19T00:17:53;2.60;;;0.60;;
32932;SDS011;19444;50.518;10.870;2023-09-19T00:20:50;1.40;;;0.50;;
32932;SDS011;19444;50.518;10.870;2023-09-19T00:23:48;1.42;;;0.80;;
32932;SDS011;19444;50.518;10.870;2023-09-19T00:26:47;1.77;;;0.63;;
32932;SDS011;19444;50.518;10.870;2023-09-19T00:29:44;1.83;;;0.68;;
32932;SDS011;19444;50.518;10.870;2023-09-19T00:32:41;2.13;;;0.60;;
32932;SDS011;19444;50.518;10.870;2023-09-19T00:35:39;1.30;;;0.60;;
32932;SDS011;19444;50.518;10.870;2023-09-19T00:38:53;2.08;;;0.60;;
32932;SDS011;19444;50.518;10.870;2023-09-19T00:41:50;1.52;;;0.60;;
32932;SDS011;19444;50.518;10.870;2023-09-19T00:44:47;1.80;;;0.73;;
32932;SDS011;19444;50.518;10.870;2023-09-19T00:47:48;1.23;;;0.60;;
32932;SDS011;19444;50.518;10.870;2023-09-19T00:50:47;3.15;;;0.52;;
32932;SDS011;19444;50.518;10.870;2023-09-19T00:53:46;2.00;;;0.50;;
32932;SDS011;19444;50.518;10.870;2023-09-19T00:56:44;3.60;;;0.93;;
32932;SDS011;19444;50.518;10.870;2023-09-19T00:59:42;1.75;;;0.80;;
32932;SDS011;19444;50.518;10.870;2023-09-19T01:02:39;2.03;;;0.60;;
32932;SDS011;19444;50.518;10.870;2023-09-19T01:05:37;1.27;;;0.70;;
32932;SDS011;19444;50.518;10.870;2023-09-19T01:08:35;1.17;;;0.68;;
32932;SDS011;19444;50.518;10.870;2023-09-19T01:11:33;2.53;;;1.00;;
32932;SDS011;19444;50.518;10.870;2023-09-19T01:14:42;1.85;;;1.00;;
32932;SDS011;19444;50.518;10.870;2023-09-19T01:17:59;2.20;;;0.70;;
32932;SDS011;19444;50.518;10.870;2023-09-19T01:31:23;1.95;;;0.80;;
32932;SDS011;19444;50.518;10.870;2023-09-19T01:34:24;1.20;;;0.70;;
32932;SDS011;19444;50.518;10.870;2023-09-19T01:37:23;1.38;;;0.50;;
32932;SDS011;19444;50.518;10.870;2023-09-19T01:40:23;1.23;;;0.63;;
32932;SDS011;19444;50.518;10.870;2023-09-19T01:43:22;1.58;;;0.88;;
32932;SDS011;19444;50.518;10.870;2023-09-19T01:46:35;1.90;;;0.80;;
32932;SDS011;19444;50.518;10.870;2023-09-19T01:49:37;2.30;;;0.70;;
32932;SDS011;19444;50.518;10.870;2023-09-19T01:52:48;1.02;;;0.60;;
32932;SDS011;19444;50.518;10.870;2023-09-19T01:55:53;1.52;;;0.57;;
32932;SDS011;19444;50.518;10.870;2023-09-19T01:58:51;2.60;;;0.80;;
32932;SDS011;19444;50.518;10.870;2023-09-19T02:01:55;1.83;;;0.70;;
32932;SDS011;19444;50.518;10.870;2023-09-19T02:04:54;2.38;;;0.93;;
32932;SDS011;19444;50.518;10.870;2023-09-19T02:07:51;1.00;;;0.63;;
32932;SDS011;19444;50.518;10.870;2023-09-19T02:10:49;1.48;;;0.77;;
32932;SDS011;19444;50.518;10.870;2023-09-19T02:13:47;1.30;;;0.70;;
32932;SDS011;19444;50.518;10.870;2023-09-19T02:16:44;1.50;;;0.57;;
32932;SDS011;19444;50.518;10.870;2023-09-19T02:19:42;3.35;;;0.73;;
32932;SDS011;19444;50.518;10.870;2023-09-19T02:22:39;1.92;;;0.82;;
32932;SDS011;19444;50.518;10.870;2023-09-19T02:25:35;1.67;;;1.00;;
32932;SDS011;19444;50.518;10.870;2023-09-19T02:28:34;1.65;;;0.82;;
32932;SDS011;19444;50.518;10.870;2023-09-19T02:31:32;1.85;;;0.95;;
32932;SDS011;19444;50.518;10.870;2023-09-19T02:34:29;2.17;;;0.70;;
32932;SDS011;19444;50.518;10.870;2023-09-19T02:37:26;2.38;;;1.05;;
32932;SDS011;19444;50.518;10.870;2023-09-19T02:40:23;2.08;;;0.80;;
32932;SDS011;19444;50.518;10.870;2023-09-19T02:43:22;2.47;;;0.70;;
32932;SDS011;19444;50.518;10.870;2023-09-19T02:46:20;1.95;;;0.90;;
32932;SDS011;19444;50.518;10.870;2023-09-19T02:49:17;2.15;;;0.70;;
32932;SDS011;19444;50.518;10.870;2023-09-19T02:52:14;2.38;;;0.80;;
32932;SDS011;19444;50.518;10.870;2023-09-19T02:55:11;1.58;;;0.80;;
32932;SDS011;19444;50.518;10.870;2023-09-19T02:58:13;1.42;;;0.93;;
32932;SDS011;19444;50.518;10.870;2023-09-19T03:01:11;1.52;;;0.70;;
32932;SDS011;19444;50.518;10.870;2023-09-19T03:04:09;2.20;;;0.73;;
32932;SDS011;19444;50.518;10.870;2023-09-19T03:07:07;2.95;;;0.68;;
32932;SDS011;19444;50.518;10.870;2023-09-19T03:10:07;1.23;;;0.73;;
32932;SDS011;19444;50.518;10.870;2023-09-19T03:13:05;1.25;;;0.82;;
32932;SDS011;19444;50.518;10.870;2023-09-19T03:16:03;1.90;;;1.10;;
32932;SDS011;19444;50.518;10.870;2023-09-19T03:19:02;4.85;;;1.10;;
32932;SDS011;19444;50.518;10.870;2023-09-19T03:21:59;2.88;;;0.80;;
32932;SDS011;19444;50.518;10.870;2023-09-19T03:24:56;1.45;;;0.90;;
32932;SDS011;19444;50.518;10.870;2023-09-19T03:27:53;1.98;;;1.15;;
32932;SDS011;19444;50.518;10.870;2023-09-19T03:31:04;3.38;;;1.05;;
32932;SDS011;19444;50.518;10.870;2023-09-19T03:34:02;2.85;;;1.10;;
32932;SDS011;19444;50.518;10.870;2023-09-19T03:37:00;2.28;;;1.30;;
32932;SDS011;19444;50.518;10.870;2023-09-19T03:39:57;2.05;;;0.93;;
32932;SDS011;19444;50.518;10.870;2023-09-19T03:42:54;1.63;;;1.02;;
32932;SDS011;19444;50.518;10.870;2023-09-19T03:45:51;3.42;;;1.38;;
32932;SDS011;19444;50.518;10.870;2023-09-19T03:48:50;2.55;;;1.00;;
32932;SDS011;19444;50.518;10.870;2023-09-19T03:51:47;2.85;;;1.17;;
32932;SDS011;19444;50.518;10.870;2023-09-19T03:54:44;1.73;;;1.00;;
32932;SDS011;19444;50.518;10.870;2023-09-19T03:57:41;2.28;;;1.40;;
32932;SDS011;19444;50.518;10.870;2023-09-19T04:00:38;2.10;;;1.17;;
32932;SDS011;19444;50.518;10.870;2023-09-19T04:03:35;2.50;;;1.30;;
32932;SDS011;19444;50.518;10.870;2023-09-19T04:06:42;3.97;;;1.50;;
32932;SDS011;19444;50.518;10.870;2023-09-19T04:09:39;2.90;;;1.50;;
32932;SDS011;19444;50.518;10.870;2023-09-19T04:12:36;2.92;;;1.02;;
32932;SDS011;19444;50.518;10.870;2023-09-19T04:15:36;2.90;;;1.10;;
32932;SDS011;19444;50.518;10.870;2023-09-19T04:18:33;2.03;;;1.20;;
32932;SDS011;19444;50.518;10.870;2023-09-19T04:21:34;2.03;;;1.33;;
32932;SDS011;19444;50.518;10.870;2023-09-19T04:24:31;2.30;;;2.10;;
32932;SDS011;19444;50.518;10.870;2023-09-19T04:27:29;2.95;;;1.48;;
32932;SDS011;19444;50.518;10.870;2023-09-19T04:30:26;2.42;;;1.60;;
32932;SDS011;19444;50.518;10.870;2023-09-19T04:33:23;3.38;;;1.40;;
32932;SDS011;19444;50.518;10.870;2023-09-19T04:36:21;2.95;;;1.23;;
32932;SDS011;19444;50.518;10.870;2023-09-19T04:39:30;1.85;;;1.27;;
32932;SDS011;19444;50.518;10.870;2023-09-19T04:42:27;1.90;;;1.10;;
32932;SDS011;19444;50.518;10.870;2023-09-19T04:45:26;1.95;;;1.20;;
32932;SDS011;19444;50.518;10.870;2023-09-19T04:48:24;3.10;;;1.13;;
32932;SDS011;19444;50.518;10.870;2023-09-19T04:51:21;2.53;;;1.02;;
32932;SDS011;19444;50.518;10.870;2023-09-19T04:54:18;2.85;;;1.50;;
32932;SDS011;19444;50.518;10.870;2023-09-19T04:57:15;2.92;;;1.20;;
32932;SDS011;19444;50.518;10.870;2023-09-19T05:00:12;2.25;;;1.20;;
32932;SDS011;19444;50.518;10.870;2023-09-19T05:03:13;4.72;;;1.48;;
32932;SDS011;19444;50.518;10.870;2023-09-19T05:06:10;2.45;;;1.10;;
32932;SDS011;19444;50.518;10.870;2023-09-19T05:09:07;1.98;;;0.90;;
32932;SDS011;19444;50.518;10.870;2023-09-19T05:12:04;2.10;;;0.95;;
32932;SDS011;19444;50.518;10.870;2023-09-19T05:15:05;3.20;;;1.38;;
32932;SDS011;19444;50.518;10.870;2023-09-19T05:18:04;2.15;;;1.38;;
32932;SDS011;19444;50.518;10.870;2023-09-19T05:21:02;1.23;;;1.00;;
32932;SDS011;19444;50.518;10.870;2023-09-19T05:23:59;3.13;;;1.50;;
32932;SDS011;19444;50.518;10.870;2023-09-19T05:26:56;2.42;;;1.35;;
32932;SDS011;19444;50.518;10.870;2023-09-19T05:29:53;5.40;;;1.73;;
32932;SDS011;19444;50.518;10.870;2023-09-19T05:32:52;3.00;;;1.10;;
32932;SDS011;19444;50.518;10.870;2023-09-19T05:35:50;3.30;;;1.20;;
32932;SDS011;19444;50.518;10.870;2023-09-19T05:38:47;6.28;;;1.63;;
32932;SDS011;19444;50.518;10.870;2023-09-19T05:41:46;3.58;;;1.52;;
32932;SDS011;19444;50.518;10.870;2023-09-19T05:44:43;2.80;;;1.45;;
32932;SDS011;19444;50.518;10.870;2023-09-19T05:47:40;3.25;;;1.50;;
32932;SDS011;19444;50.518;10.870;2023-09-19T05:50:40;2.03;;;1.30;;
32932;SDS011;19444;50.518;10.870;2023-09-19T05:53:38;4.97;;;1.83;;
32932;SDS011;19444;50.518;10.870;2023-09-19T05:56:36;1.38;;;1.13;;
32932;SDS011;19444;50.518;10.870;2023-09-19T05:59:33;3.97;;;1.85;;
32932;SDS011;19444;50.518;10.870;2023-09-19T06:02:30;2.00;;;1.40;;
32932;SDS011;19444;50.518;10.870;2023-09-19T06:05:27;2.45;;;1.38;;
32932;SDS011;19444;50.518;10.870;2023-09-19T06:08:26;2.75;;;1.70;;
32932;SDS011;19444;50.518;10.870;2023-09-19T06:11:24;2.65;;;1.38;;
32932;SDS011;19444;50.518;10.870;2023-09-19T06:14:22;3.03;;;1.50;;
32932;SDS011;19444;50.518;10.870;2023-09-19T06:17:20;3.13;;;1.05;;
32932;SDS011;19444;50.518;10.870;2023-09-19T06:20:19;2.80;;;1.20;;
32932;SDS011;19444;50.518;10.870;2023-09-19T06:23:16;1.52;;;1.02;;
32932;SDS011;19444;50.518;10.870;2023-09-19T06:26:13;3.83;;;1.38;;
32932;SDS011;19444;50.518;10.870;2023-09-19T06:29:10;4.22;;;0.90;;
32932;SDS011;19444;50.518;10.870;2023-09-19T06:32:07;1.48;;;0.70;;
32932;SDS011;19444;50.518;10.870;2023-09-19T06:35:05;3.83;;;1.08;;
32932;SDS011;19444;50.518;10.870;2023-09-19T06:38:04;1.77;;;0.80;;
32932;SDS011;19444;50.518;10.870;2023-09-19T06:41:02;2.08;;;0.73;;
32932;SDS011;19444;50.518;10.870;2023-09-19T06:44:03;2.78;;;0.82;;
32932;SDS011;19444;50.518;10.870;2023-09-19T06:47:01;2.35;;;0.70;;
32932;SDS011;19444;50.518;10.870;2023-09-19T06:49:59;1.38;;;0.68;;
32932;SDS011;19444;50.518;10.870;2023-09-19T06:52:58;1.55;;;0.60;;
32932;SDS011;19444;50.518;10.870;2023-09-19T06:55:57;2.22;;;0.88;;
32932;SDS011;19444;50.518;10.870;2023-09-19T06:58:55;1.48;;;0.70;;
32932;SDS011;19444;50.518;10.870;2023-09-19T07:01:52;3.58;;;0.85;;
32932;SDS011;19444;50.518;10.870;2023-09-19T07:04:49;2.75;;;0.63;;
32932;SDS011;19444;50.518;10.870;2023-09-19T07:07:46;1.30;;;0.52;;
32932;SDS011;19444;50.518;10.870;2023-09-19T07:10:43;2.50;;;0.90;;
32932;SDS011;19444;50.518;10.870;2023-09-19T07:13:45;1.80;;;0.63;;
32932;SDS011;19444;50.518;10.870;2023-09-19T07:16:43;1.60;;;0.60;;
32932;SDS011;19444;50.518;10.870;2023-09-19T07:19:41;2.35;;;0.70;;
32932;SDS011;19444;50.518;10.870;2023-09-19T07:22:38;1.60;;;0.93;;
32932;SDS011;19444;50.518;10.870;2023-09-19T07:25:36;0.95;;;0.60;;
32932;SDS011;19444;50.518;10.870;2023-09-19T07:28:33;3.05;;;1.00;;
32932;SDS011;19444;50.518;10.870;2023-09-19T07:31:31;1.30;;;0.60;;
32932;SDS011;19444;50.518;10.870;2023-09-19T07:34:28;2.70;;;0.50;;
32932;SDS011;19444;50.518;10.870;2023-09-19T07:37:25;3.00;;;0.95;;
32932;SDS011;19444;50.518;10.870;2023-09-19T07:40:22;2.20;;;0.70;;
32932;SDS011;19444;50.518;10.870;2023-09-19T07:43:20;3.45;;;0.68;;
32932;SDS011;19444;50.518;10.870;2023-09-19T07:46:18;1.60;;;0.60;;
32932;SDS011;19444;50.518;10.870;2023-09-19T07:49:15;2.58;;;0.70;;
32932;SDS011;19444;50.518;10.870;2023-09-19T07:52:12;2.65;;;0.80;;
32932;SDS011;19444;50.518;10.870;2023-09-19T07:55:10;1.60;;;0.60;;
32932;SDS011;19444;50.518;10.870;2023-09-19T07:58:07;2.20;;;0.75;;
32932;SDS011;19444;50.518;10.870;2023-09-19T08:07:02;2.30;;;0.80;;
32932;SDS011;19444;50.518;10.870;2023-09-19T08:10:01;2.72;;;0.90;;
32932;SDS011;19444;50.518;10.870;2023-09-19T08:12:58;2.58;;;0.90;;
32932;SDS011;19444;50.518;10.870;2023-09-19T08:15:56;4.32;;;0.85;;
32932;SDS011;19444;50.518;10.870;2023-09-19T08:18:53;2.33;;;0.90;;
32932;SDS011;19444;50.518;10.870;2023-09-19T08:21:51;1.67;;;0.70;;
32932;SDS011;19444;50.518;10.870;2023-09-19T08:24:49;2.05;;;0.70;;
32932;SDS011;19444;50.518;10.870;2023-09-19T08:27:46;2.40;;;0.90;;
32932;SDS011;19444;50.518;10.870;2023-09-19T08:30:45;0.60;;;0.40;;
32932;SDS011;19444;50.518;10.870;2023-09-19T08:33:42;2.45;;;1.00;;
32932;SDS011;19444;50.518;10.870;2023-09-19T08:36:46;2.25;;;0.60;;
32932;SDS011;19444;50.518;10.870;2023-09-19T08:39:44;1.73;;;0.73;;
32932;SDS011;19444;50.518;10.870;2023-09-19T08:42:50;2.55;;;0.70;;
32932;SDS011;19444;50.518;10.870;2023-09-19T08:45:57;2.35;;;0.65;;
32932;SDS011;19444;50.518;10.870;2023-09-19T08:49:08;2.08;;;0.70;;
32932;SDS011;19444;50.518;10.870;2023-09-19T08:52:36;3.38;;;1.25;;
32932;SDS011;19444;50.518;10.870;2023-09-19T08:55:45;2.42;;;0.70;;
32932;SDS011;19444;50.518;10.870;2023-09-19T08:58:50;1.95;;;0.60;;
32932;SDS011;19444;50.518;10.870;2023-09-19T09:01:54;2.27;;;0.60;;
32932;SDS011;19444;50.518;10.870;2023-09-19T09:04:53;3.10;;;0.75;;
32932;SDS011;19444;50.518;10.870;2023-09-19T09:07:54;2.00;;;0.68;;
32932;SDS011;19444;50.518;10.870;2023-09-19T09:10:52;3.00;;;0.70;;
32932;SDS011;19444;50.518;10.870;2023-09-19T09:13:50;2.53;;;1.38;;
32932;SDS011;19444;50.518;10.870;2023-09-19T09:16:47;2.05;;;0.50;;
32932;SDS011;19444;50.518;10.870;2023-09-19T09:19:45;2.38;;;0.75;;
32932;SDS011;19444;50.518;10.870;2023-09-19T09:22:50;2.45;;;0.73;;
32932;SDS011;19444;50.518;10.870;2023-09-19T09:25:53;2.78;;;0.60;;
32932;SDS011;19444;50.518;10.870;2023-09-19T09:28:51;1.40;;;0.80;;
32932;SDS011;19444;50.518;10.870;2023-09-19T09:31:50;2.55;;;0.95;;
32932;SDS011;19444;50.518;10.870;2023-09-19T09:34:48;1.77;;;0.77;;
32932;SDS011;19444;50.518;10.870;2023-09-19T09:37:59;1.95;;;0.85;;
32932;SDS011;19444;50.518;10.870;2023-09-19T09:41:03;2.72;;;1.27;;
32932;SDS011;19444;50.518;10.870;2023-09-19T09:44:13;2.53;;;0.80;;
32932;SDS011;19444;50.518;10.870;2023-09-19T09:47:14;6.57;;;1.23;;
32932;SDS011;19444;50.518;10.870;2023-09-19T09:50:37;1.92;;;0.90;;
32932;SDS011;19444;50.518;10.870;2023-09-19T09:53:48;3.33;;;0.90;;
32932;SDS011;19444;50.518;10.870;2023-09-19T09:56:55;2.20;;;0.80;;
32932;SDS011;19444;50.518;10.870;2023-09-19T09:59:57;2.22;;;1.08;;
32932;SDS011;19444;50.518;10.870;2023-09-19T10:03:20;3.08;;;1.25;;
32932;SDS011;19444;50.518;10.870;2023-09-19T10:06:19;6.00;;;1.50;;
32932;SDS011;19444;50.518;10.870;2023-09-19T10:09:22;4.53;;;1.10;;
32932;SDS011;19444;50.518;10.870;2023-09-19T10:12:24;2.20;;;1.15;;
32932;SDS011;19444;50.518;10.870;2023-09-19T10:15:23;3.47;;;0.82;;
32932;SDS011;19444;50.518;10.870;2023-09-19T10:18:23;3.85;;;1.10;;
32932;SDS011;19444;50.518;10.870;2023-09-19T10:21:23;2.75;;;1.08;;
32932;SDS011;19444;50.518;10.870;2023-09-19T10:24:20;3.08;;;1.00;;
32932;SDS011;19444;50.518;10.870;2023-09-19T10:27:21;4.03;;;1.00;;
32932;SDS011;19444;50.518;10.870;2023-09-19T10:30:22;1.70;;;0.82;;
32932;SDS011;19444;50.518;10.870;2023-09-19T10:33:21;2.92;;;1.08;;
32932;SDS011;19444;50.518;10.870;2023-09-19T10:36:25;1.85;;;0.85;;
32932;SDS011;19444;50.518;10.870;2023-09-19T10:39:26;2.40;;;1.15;;
32932;SDS011;19444;50.518;10.870;2023-09-19T10:42:27;2.13;;;0.90;;
32932;SDS011;19444;50.518;10.870;2023-09-19T10:45:28;4.30;;;1.13;;
32932;SDS011;19444;50.518;10.870;2023-09-19T10:48:32;4.50;;;1.52;;
32932;SDS011;19444;50.518;10.870;2023-09-19T10:51:30;3.50;;;1.20;;
32932;SDS011;19444;50.518;10.870;2023-09-19T10:54:36;3.72;;;1.27;;
32932;SDS011;19444;50.518;10.870;2023-09-19T10:57:35;3.17;;;1.25;;
32932;SDS011;19444;50.518;10.870;2023-09-19T11:00:45;2.80;;;1.45;;
32932;SDS011;19444;50.518;10.870;2023-09-19T11:03:49;5.40;;;1.80;;
32932;SDS011;19444;50.518;10.870;2023-09-19T11:07:27;3.97;;;1.40;;
32932;SDS011;19444;50.518;10.870;2023-09-19T11:13:43;5.20;;;1.25;;
32932;SDS011;19444;50.518;10.870;2023-09-19T11:26:32;3.60;;;1.40;;
32932;SDS011;19444;50.518;10.870;2023-09-19T11:29:45;2.95;;;1.50;;
32932;SDS011;19444;50.518;10.870;2023-09-19T11:33:15;4.32;;;1.42;;
32932;SDS011;19444;50.518;10.870;2023-09-19T11:36:35;2.78;;;1.40;;
32932;SDS011;19444;50.518;10.870;2023-09-19T11:39:32;3.13;;;1.20;;
32932;SDS011;19444;50.518;10.870;2023-09-19T11:42:46;2.97;;;1.33;;
32932;SDS011;19444;50.518;10.870;2023-09-19T11:48:54;5.47;;;1.52;;
32932;SDS011;19444;50.518;10.870;2023-09-19T11:52:02;3.38;;;1.40;;
32932;SDS011;19444;50.518;10.870;2023-09-19T11:55:05;3.55;;;1.38;;
32932;SDS011;19444;50.518;10.870;2023-09-19T11:58:06;4.13;;;1.70;;
32932;SDS011;19444;50.518;10.870;2023-09-19T12:01:04;3.45;;;1.50;;
32932;SDS011;19444;50.518;10.870;2023-09-19T12:04:11;5.93;;;1.98;;
32932;SDS011;19444;50.518;10.870;2023-09-19T12:07:09;2.90;;;1.40;;
32932;SDS011;19444;50.518;10.870;2023-09-19T12:10:12;3.40;;;1.60;;
32932;SDS011;19444;50.518;10.870;2023-09-19T12:16:20;5.10;;;1.52;;
32932;SDS011;19444;50.518;10.870;2023-09-19T12:19:18;3.03;;;1.58;;
32932;SDS011;19444;50.518;10.870;2023-09-19T12:22:18;5.63;;;1.92;;
32932;SDS011;19444;50.518;10.870;2023-09-19T12:28:17;3.28;;;1.67;;
32932;SDS011;19444;50.518;10.870;2023-09-19T12:31:14;4.13;;;1.58;;
32932;SDS011;19444;50.518;10.870;2023-09-19T12:34:16;3.83;;;1.75;;
32932;SDS011;19444;50.518;10.870;2023-09-19T12:37:16;3.53;;;1.58;;
32932;SDS011;19444;50.518;10.870;2023-09-19T12:40:23;3.40;;;1.70;;
32932;SDS011;19444;50.518;10.870;2023-09-19T12:43:30;3.58;;;1.88;;
32932;SDS011;19444;50.518;10.870;2023-09-19T12:46:29;3.67;;;1.50;;
32932;SDS011;19444;50.518;10.870;2023-09-19T12:49:28;2.97;;;1.60;;
32932;SDS011;19444;50.518;10.870;2023-09-19T12:52:33;3.40;;;1.77;;
32932;SDS011;19444;50.518;10.870;2023-09-19T12:55:34;3.90;;;1.60;;
32932;SDS011;19444;50.518;10.870;2023-09-19T12:58:34;2.40;;;1.63;;
32932;SDS011;19444;50.518;10.870;2023-09-19T13:02:05;4.32;;;1.73;;
32932;SDS011;19444;50.518;10.870;2023-09-19T13:05:03;4.10;;;1.85;;
32932;SDS011;19444;50.518;10.870;2023-09-19T13:08:17;4.45;;;1.67;;
32932;SDS011;19444;50.518;10.870;2023-09-19T13:11:17;4.28;;;1.70;;
32932;SDS011;19444;50.518;10.870;2023-09-19T13:14:22;4.93;;;1.48;;
32932;SDS011;19444;50.518;10.870;2023-09-19T13:17:23;2.92;;;1.42;;
32932;SDS011;19444;50.518;10.870;2023-09-19T13:20:21;4.47;;;1.98;;
32932;SDS011;19444;50.518;10.870;2023-09-19T13:23:26;4.85;;;1.92;;
32932;SDS011;19444;50.518;10.870;2023-09-19T13:26:23;4.25;;;1.63;;
32932;SDS011;19444;50.518;10.870;2023-09-19T13:29:20;2.95;;;1.60;;
32932;SDS011;19444;50.518;10.870;2023-09-19T13:32:18;3.83;;;1.38;;
32932;SDS011;19444;50.518;10.870;2023-09-19T13:35:15;4.10;;;1.63;;
32932;SDS011;19444;50.518;10.870;2023-09-19T13:38:12;3.53;;;1.55;;
32932;SDS011;19444;50.518;10.870;2023-09-19T13:41:10;5.63;;;1.88;;
32932;SDS011;19444;50.518;10.870;2023-09-19T13:44:08;3.40;;;1.63;;
32932;SDS011;19444;50.518;10.870;2023-09-19T13:47:06;4.25;;;1.70;;
32932;SDS011;19444;50.518;10.870;2023-09-19T13:50:06;4.38;;;1.65;;
32932;SDS011;19444;50.518;10.870;2023-09-19T13:53:04;4.75;;;1.50;;
32932;SDS011;19444;50.518;10.870;2023-09-19T13:56:01;3.67;;;1.38;;
32932;SDS011;19444;50.518;10.870;2023-09-19T13:58:58;2.72;;;1.67;;
32932;SDS011;19444;50.518;10.870;2023-09-19T14:01:55;3.80;;;1.73;;
32932;SDS011;19444;50.518;10.870;2023-09-19T14:04:53;4.70;;;1.80;;
32932;SDS011;19444;50.518;10.870;2023-09-19T14:07:51;3.63;;;1.67;;
32932;SDS011;19444;50.518;10.870;2023-09-19T14:10:48;4.32;;;2.25;;
32932;SDS011;19444;50.518;10.870;2023-09-19T14:13:46;3.45;;;1.65;;
32932;SDS011;19444;50.518;10.870;2023-09-19T14:16:46;5.38;;;2.05;;
32932;SDS011;19444;50.518;10.870;2023-09-19T14:19:44;3.80;;;2.08;;
32932;SDS011;19444;50.518;10.870;2023-09-19T14:22:42;4.07;;;1.73;;
32932;SDS011;19444;50.518;10.870;2023-09-19T14:25:39;7.15;;;1.48;;
32932;SDS011;19444;50.518;10.870;2023-09-19T14:28:35;4.22;;;1.67;;
32932;SDS011;19444;50.518;10.870;2023-09-19T14:31:33;3.78;;;1.90;;
32932;SDS011;19444;50.518;10.870;2023-09-19T14:34:30;5.15;;;1.83;;
32932;SDS011;19444;50.518;10.870;2023-09-19T14:37:28;5.40;;;1.52;;
32932;SDS011;19444;50.518;10.870;2023-09-19T14:40:25;3.20;;;1.30;;
32932;SDS011;19444;50.518;10.870;2023-09-19T14:43:23;3.38;;;1.60;;
32932;SDS011;19444;50.518;10.870;2023-09-19T14:46:20;4.10;;;1.80;;
32932;SDS011;19444;50.518;10.870;2023-09-19T14:49:17;2.50;;;1.25;;
32932;SDS011;19444;50.518;10.870;2023-09-19T14:52:14;5.78;;;1.67;;
32932;SDS011;19444;50.518;10.870;2023-09-19T14:55:12;3.40;;;1.58;;
32932;SDS011;19444;50.518;10.870;2023-09-19T14:58:10;3.85;;;1.30;;
32932;SDS011;19444;50.518;10.870;2023-09-19T15:01:09;3.45;;;1.30;;
32932;SDS011;19444;50.518;10.870;2023-09-19T15:04:08;3.13;;;1.38;;
32932;SDS011;19444;50.518;10.870;2023-09-19T15:07:06;4.60;;;1.38;;
32932;SDS011;19444;50.518;10.870;2023-09-19T15:10:04;4.75;;;1.20;;
32932;SDS011;19444;50.518;10.870;2023-09-19T15:13:03;2.90;;;1.30;;
32932;SDS011;19444;50.518;10.870;2023-09-19T15:16:03;5.72;;;1.65;;
32932;SDS011;19444;50.518;10.870;2023-09-19T15:19:08;10.00;;;1.85;;
32932;SDS011;19444;50.518;10.870;2023-09-19T15:22:06;3.60;;;1.38;;
32932;SDS011;19444;50.518;10.870;2023-09-19T15:25:03;3.67;;;1.50;;
32932;SDS011;19444;50.518;10.870;2023-09-19T15:28:00;3.22;;;1.70;;
32932;SDS011;19444;50.518;10.870;2023-09-19T15:31:04;5.63;;;1.58;;
32932;SDS011;19444;50.518;10.870;2023-09-19T15:34:06;4.03;;;1.85;;
32932;SDS011;19444;50.518;10.870;2023-09-19T15:37:05;6.63;;;1.50;;
32932;SDS011;19444;50.518;10.870;2023-09-19T15:40:02;6.20;;;1.40;;
32932;SDS011;19444;50.518;10.870;2023-09-19T15:43:04;3.35;;;1.13;;
32932;SDS011;19444;50.518;10.870;2023-09-19T15:46:01;2.72;;;1.30;;
32932;SDS011;19444;50.518;10.870;2023-09-19T15:48:58;4.63;;;1.75;;
32932;SDS011;19444;50.518;10.870;2023-09-19T15:51:56;3.28;;;1.08;;
32932;SDS011;19444;50.518;10.870;2023-09-19T15:54:53;1.92;;;1.10;;
32932;SDS011;19444;50.518;10.870;2023-09-19T15:57:50;4.95;;;1.35;;
32932;SDS011;19444;50.518;10.870;2023-09-19T16:00:48;2.33;;;1.20;;
32932;SDS011;19444;50.518;10.870;2023-09-19T16:03:47;3.17;;;1.42;;
32932;SDS011;19444;50.518;10.870;2023-09-19T16:06:49;6.55;;;1.40;;
32932;SDS011;19444;50.518;10.870;2023-09-19T16:09:48;5.03;;;1.30;;
32932;SDS011;19444;50.518;10.870;2023-09-19T16:12:45;3.25;;;1.38;;
32932;SDS011;19444;50.518;10.870;2023-09-19T16:15:44;2.58;;;1.30;;
32932;SDS011;19444;50.518;10.870;2023-09-19T16:18:45;1.90;;;1.25;;
32932;SDS011;19444;50.518;10.870;2023-09-19T16:21:47;3.78;;;1.10;;
32932;SDS011;19444;50.518;10.870;2023-09-19T16:24:43;2.95;;;1.13;;
32932;SDS011;19444;50.518;10.870;2023-09-19T16:27:40;3.78;;;1.65;;
32932;SDS011;19444;50.518;10.870;2023-09-19T16:30:37;7.50;;;1.92;;
32932;SDS011;19444;50.518;10.870;2023-09-19T16:33:38;3.88;;;1.80;;
32932;SDS011;19444;50.518;10.870;2023-09-19T16:36:37;3.95;;;1.67;;
32932;SDS011;19444;50.518;10.870;2023-09-19T16:39:34;5.60;;;1.50;;
32932;SDS011;19444;50.518;10.870;2023-09-19T16:42:31;3.75;;;1.67;;
32932;SDS011;19444;50.518;10.870;2023-09-19T16:45:34;3.95;;;1.38;;
32932;SDS011;19444;50.518;10.870;2023-09-19T16:48:33;4.13;;;1.67;;
32932;SDS011;19444;50.518;10.870;2023-09-19T16:51:46;3.00;;;1.45;;
32932;SDS011;19444;50.518;10.870;2023-09-19T16:54:43;6.10;;;1.73;;
32932;SDS011;19444;50.518;10.870;2023-09-19T16:57:40;6.65;;;1.98;;
32932;SDS011;19444;50.518;10.870;2023-09-19T17:00:39;3.92;;;1.30;;
32932;SDS011;19444;50.518;10.870;2023-09-19T17:03:36;3.38;;;1.38;;
32932;SDS011;19444;50.518;10.870;2023-09-19T17:06:36;3.15;;;1.52;;
32932;SDS011;19444;50.518;10.870;2023-09-19T17:09:33;3.72;;;1.63;;
32932;SDS011;19444;50.518;10.870;2023-09-19T17:12:30;6.28;;;1.50;;
32932;SDS011;19444;50.518;10.870;2023-09-19T17:15:29;3.42;;;1.40;;
32932;SDS011;19444;50.518;10.870;2023-09-19T17:18:27;4.53;;;1.60;;
32932;SDS011;19444;50.518;10.870;2023-09-19T17:21:25;3.05;;;1.42;;
32932;SDS011;19444;50.518;10.870;2023-09-19T17:24:23;3.03;;;1.63;;
32932;SDS011;19444;50.518;10.870;2023-09-19T17:27:20;5.88;;;1.70;;
32932;SDS011;19444;50.518;10.870;2023-09-19T17:30:17;3.22;;;1.23;;
32932;SDS011;19444;50.518;10.870;2023-09-19T17:33:14;3.42;;;1.77;;
32932;SDS011;19444;50.518;10.870;2023-09-19T17:36:12;3.28;;;1.40;;
32932;SDS011;19444;50.518;10.870;2023-09-19T17:39:13;4.03;;;1.80;;
32932;SDS011;19444;50.518;10.870;2023-09-19T17:42:11;6.57;;;1.92;;
32932;SDS011;19444;50.518;10.870;2023-09-19T17:45:09;7.20;;;1.88;;
32932;SDS011;19444;50.518;10.870;2023-09-19T17:48:07;5.70;;;1.80;;
32932;SDS011;19444;50.518;10.870;2023-09-19T17:51:04;3.35;;;1.98;;
32932;SDS011;19444;50.518;10.870;2023-09-19T17:54:02;4.30;;;2.10;;
32932;SDS011;19444;50.518;10.870;2023-09-19T17:57:00;3.70;;;1.90;;
32932;SDS011;19444;50.518;10.870;2023-09-19T17:59:57;3.80;;;2.30;;
32932;SDS011;19444;50.518;10.870;2023-09-19T18:02:55;4.70;;;2.70;;
32932;SDS011;19444;50.518;10.870;2023-09-19T18:05:53;4.88;;;2.40;;
32932;SDS011;19444;50.518;10.870;2023-09-19T18:08:50;3.80;;;2.20;;
32932;SDS011;19444;50.518;10.870;2023-09-19T18:11:47;7.90;;;2.25;;
32932;SDS011;19444;50.518;10.870;2023-09-19T18:14:44;5.07;;;1.65;;
32932;SDS011;19444;50.518;10.870;2023-09-19T18:17:41;4.50;;;2.53;;
32932;SDS011;19444;50.518;10.870;2023-09-19T18:20:39;7.18;;;4.50;;
32932;SDS011;19444;50.518;10.870;2023-09-19T18:23:36;7.75;;;4.45;;